Terminal Aerodrome Forecast
Issued by NWS Omaha/Valley, NE

Home | Current Version | Previous Version | Text Only | Print | Product List | Glossary Off
Versions: 1 2 3 4 5 6 7 8 9 10 11 12 13 14 15 16 17 18 19 20 21 22 23 24 25 26 27 28 29 30 31 32 33 34

000
FTUS43 KOAX 131120
TAFOFK
TAF
KOFK 131120Z 1312/1412 19004KT P6SM SKC
      TEMPO 1312/1314 4SM BR
     FM131500 18015G22KT P6SM SCT035
     FM140000 18008KT P6SM SKC=

USA.gov is the U.S. government's official web portal to all federal, state and local government web resources and services.